Latest Coastal Weather Observations for Gabo Island (VIC)

IDN60701

Issued at 12:52 am EST Sunday 31 July 2016 (issued every 10 minutes, with the page automatically refreshed every 10 minutes)

About coastal observations | Map of coastal stations | Coastal observations for NSW | Marine services | Other Formats
Station Details ID: 084016 Name: GABO ISLAND LIGHTHOUSE Lat: -37.57 Lon: 149.92 Height: 15.2 m
Data from the previous 72 hours. | See also: Recent months at Gabo Island (VIC)
Date/Time
EST
Temp
°C
Wind Pressure Rain since
9am
mm
Weather Cloud Vis
km
Sea
Height
m
Swell
Dir  Spd
kts
Gust
kts
hPa Trend Height
m
Period
s
Dir
31/12:30am 11.9 N 4 4 1014.6 - 0.0 - - - - - - -
31/12:00am 12.2 N 8 11 1014.7 - 0.0 - - - - - - -
 
Date/Time
EST
Temp
°C
Wind Pressure Rain since
9am
mm
Weather Cloud Vis
km
Sea
Height
m
Swell
Dir  Spd
kts
Gust
kts
hPa Trend Height
m
Period
s
Dir
30/11:30pm 12.5 N 11 17 1014.8 - 0.0 - - - - - - -
30/11:00pm 12.7 N 12 16 1014.8 - 0.0 - - - - - - -
30/10:30pm 12.6 NNE 14 19 1015.1 - 0.0 - - - - - - -
30/10:00pm 12.1 NNE 13 17 1015.5 - 0.0 - - - - - - -
30/09:30pm 11.7 NNE 11 15 1016.2 - 0.0 - - - - - - -
30/09:00pm 12.0 NNE 16 19 1016.2 - 0.0 Fine - 30 1 1.0 - -
30/08:30pm 11.8 NNE 17 21 1016.2 - 0.0 - - - - - - -
30/08:00pm 11.6 NNE 15 18 1016.9 - 0.0 - - - - - - -
30/07:30pm 11.4 NNE 12 15 1017.1 - 0.0 - - - - - - -
30/07:00pm 11.4 NNE 12 15 1017.5 - 0.0 - - - - - - -
30/06:30pm 11.3 NNE 12 14 1017.4 - 0.0 - - - - - - -
30/06:00pm 11.9 NNE 13 15 1017.5 - 0.0 - - - - - - -
30/05:30pm 12.1 NNE 13 15 1017.7 - 0.0 - - - - - - -
30/05:00pm 12.4 NE 12 14 1017.8 - 0.0 - - - - - - -
30/04:30pm 12.6 NE 11 14 1018.0 - 0.0 - - - - - - -
30/04:00pm 13.0 ENE 12 15 1017.6 - 0.0 - - - - - - -
30/03:30pm 13.5 NE 9 11 1018.7 - 0.0 - - - - - - -
30/03:00pm 13.9 NE 8 9 1018.6 - 0.0 Fine Mostly clear 20 1 1.0 - -
30/02:30pm 14.2 NE 7 8 1018.9 - 0.0 - - - - - - -
30/02:00pm 13.9 E 5 7 1019.1 - 0.0 - - - - - - -
30/01:30pm 14.2 SSE 6 8 1019.3 - 0.0 - - - - - - -
30/01:00pm 14.5 S 6 7 1019.8 - 0.0 - - - - - - -
30/12:30pm 13.9 S 5 7 1020.2 - 0.0 - - - - - - -
30/12:00pm 13.8 SSW 5 5 1020.9 - 0.0 - - - - - - -
30/11:30am 13.8 SW 6 7 1021.3 - 0.0 - - - - - - -
30/11:00am 14.5 W 7 8 1021.8 - 0.0 - - - - - - -
30/10:30am 14.2 W 8 10 1021.9 - 0.0 - - - - - - -
30/10:00am 13.5 W 9 11 1021.8 - 0.0 - - - - - - -
30/09:30am 12.8 W 12 15 1021.8 - 0.0 - - - - - - -
30/09:00am 12.3 WSW 12 14 1021.9 - 0.0 Distant precip. Partly cloudy 25 2 1.0 - -
30/08:30am 11.8 WSW 12 15 1021.8 - 0.0 - - - - - - -
30/08:00am 11.4 WSW 12 15 1021.7 - 0.0 - - - - - - -
30/07:30am 11.0 WSW 13 15 1021.6 - 0.0 - - - - - - -
30/07:00am 11.0 WSW 14 16 1021.1 - 0.0 - - - - - - -
30/06:30am 11.1 W 16 18 1020.9 - 0.0 - - - - - - -
30/06:00am 11.3 W 16 19 1021.0 - 0.0 - - - - - - -
30/05:30am 11.5 W 15 18 1020.5 - 0.0 - - - - - - -
30/05:00am 11.3 W 13 18 1020.2 - 0.0 - - - - - - -
30/04:30am 11.8 W 13 17 1020.0 - 0.0 - - - - - - -
30/04:00am 11.8 W 15 19 1019.8 - 0.0 - - - - - - -
30/03:30am 12.1 WSW 17 22 1019.7 - 0.0 - - - - - - -
30/03:00am 12.4 WSW 19 24 1019.7 - 0.0 Fine Mostly clear 30 2 1.0 - -
30/02:30am 12.4 WSW 18 24 1019.8 - 0.0 - - - - - - -
30/02:00am 12.5 WSW 17 26 1019.8 - 0.0 - - - - - - -
30/01:30am 12.4 WSW 18 23 1019.8 - 0.0 - - - - - - -
30/01:00am 12.0 W 17 22 1019.7 - 0.0 - - - - - - -
30/12:30am 12.2 W 16 19 1019.7 - 0.0 - - - - - - -
30/12:00am 12.1 W 17 21 1019.5 - 0.0 - - - - - - -
 
Date/Time
EST
Temp
°C
Wind Pressure Rain since
9am
mm
Weather Cloud Vis
km
Sea
Height
m
Swell
Dir  Spd
kts
Gust
kts
hPa Trend Height
m
Period
s
Dir
29/11:30pm 12.2 W 17 22 1019.6 - 0.0 - - - - - - -
29/11:00pm 12.3 W 17 20 1019.4 - 0.0 - - - - - - -
29/10:30pm 12.7 W 16 20 1019.4 - 0.0 - - - - - - -
29/10:00pm 12.7 W 17 22 1019.3 - 0.0 - - - - - - -
29/09:30pm 12.9 WSW 24 30 1019.2 - 0.0 - - - - - - -
29/09:00pm 12.7 SW 25 31 1018.8 - 0.0 Fine Mostly cloudy 30 1 1.0 - -
29/08:30pm 13.3 WSW 22 27 1018.5 - 0.0 - - - - - - -
29/08:00pm 13.2 WSW 18 22 1018.2 - 0.0 - - - - - - -
29/07:30pm 12.9 WSW 13 15 1018.1 - 0.0 - - - - - - -
29/07:00pm 13.4 WSW 12 15 1017.8 - 0.0 - - - - - - -
29/06:30pm 13.3 WSW 12 16 1017.4 - 0.0 - - - - - - -
29/06:00pm 13.7 SW 14 21 1017.0 - 0.0 - - - - - - -
29/05:30pm 13.7 WSW 10 12 1016.8 - 0.0 - - - - - - -
29/05:00pm 14.3 WSW 11 13 1016.3 - 0.0 - - - - - - -
29/04:30pm 14.7 WSW 10 13 1016.2 - 0.0 - - - - - - -
29/04:00pm 14.9 W 9 11 1016.2 - 0.0 - - - - - - -
29/03:30pm 15.1 W 9 12 1016.0 - 0.0 - - - - - - -
29/03:00pm 15.6 WSW 11 18 1016.0 - 0.0 Fine Mostly cloudy 40 <0.5 1.0 - -
29/02:30pm 16.0 W 9 11 1016.0 - 0.0 - - - - - - -
29/02:00pm 16.2 W 10 13 1016.0 - 0.0 - - - - - - -
29/01:30pm 16.4 W 10 14 1016.2 - 0.0 - - - - - - -
29/01:00pm 17.0 WNW 10 15 1016.5 - 0.0 - - - - - - -
29/12:30pm 16.9 WNW 7 11 1016.9 - 0.0 - - - - - - -
29/12:00pm 16.2 NNW 8 11 1017.5 - 0.0 - - - - - - -
29/11:30am 16.0 NNW 8 11 1018.0 - 0.0 - - - - - - -
29/11:00am 14.6 WNW 7 9 1018.6 - 0.0 - - - - - - -
29/10:30am 13.8 WNW 7 9 1018.9 - 0.0 - - - - - - -
29/10:00am 13.9 NW 7 10 1019.2 - 0.0 - - - - - - -
29/09:30am 13.2 WNW 8 11 1019.2 - 0.0 - - - - - - -
29/09:00am 12.3 NW 9 13 1019.4 - 0.0 Fine Mostly cloudy 30 1 1.0 - -
29/08:30am 11.7 NW 9 13 1019.4 - 0.0 - - - - - - -
29/08:00am 11.4 NW 11 16 1019.4 - 0.0 - - - - - - -
29/07:30am 11.3 NW 9 12 1019.1 - 0.0 - - - - - - -
29/07:00am 10.8 NW 8 11 1019.0 - 0.0 - - - - - - -
29/06:30am 10.7 NW 9 13 1019.0 - 0.0 - - - - - - -
29/06:00am 10.4 NW 10 13 1019.0 - 0.0 - - - - - - -
29/05:30am 10.4 NW 8 11 1018.8 - 0.0 - - - - - - -
29/05:00am 9.8 NW 6 9 1018.8 - 0.0 - - - - - - -
29/04:30am 9.5 NW 5 7 1018.8 - 0.0 - - - - - - -
29/04:00am 10.5 WNW 7 8 1018.9 - 0.0 - - - - - - -
29/03:30am 10.7 NW 5 7 1018.9 - 0.0 - - - - - - -
29/03:00am 10.7 NW 8 11 1019.0 - 0.0 Fine Mostly cloudy 30 1 1.0 - -
29/02:30am 10.7 WNW 9 11 1019.2 - 0.0 - - - - - - -
29/02:00am 10.5 WNW 7 10 1019.2 - 0.0 - - - - - - -
29/01:30am 11.3 NW 8 11 1019.3 - 0.0 - - - - - - -
29/01:00am 11.2 NW 9 13 1019.5 - 0.0 - - - - - - -
29/12:30am 11.1 NW 9 12 1019.8 - 0.0 - - - - - - -
29/12:00am 10.7 NW 8 11 1020.1 - 0.0 - - - - - - -
 
Date/Time
EST
Temp
°C
Wind Pressure Rain since
9am
mm
Weather Cloud Vis
km
Sea
Height
m
Swell
Dir  Spd
kts
Gust
kts
hPa Trend Height
m
Period
s
Dir
28/11:30pm 10.6 NW 8 11 1020.2 - 0.0 - - - - - - -
28/11:00pm 11.0 WNW 9 11 1020.4 - 0.0 - - - - - - -
28/10:30pm 10.8 WNW 10 14 1020.4 - 0.0 - - - - - - -
28/10:00pm 10.8 NW 8 11 1020.4 - 0.0 - - - - - - -
28/09:30pm 11.3 W 10 13 1020.5 - 0.0 - - - - - - -
28/09:00pm 11.0 W 10 13 1020.5 - 0.0 Fine Mostly clear 30 2 1.0 - -
28/08:30pm 10.9 W 9 11 1020.7 - 0.0 - - - - - - -
28/08:00pm 11.4 W 10 12 1020.5 - 0.0 - - - - - - -
28/07:30pm 12.2 W 13 16 1020.2 - 0.0 - - - - - - -
28/07:00pm 12.5 WSW 13 17 1020.1 - 0.0 - - - - - - -
28/06:30pm 12.7 WSW 15 18 1019.8 - 0.0 - - - - - - -
28/06:00pm 12.9 WSW 17 22 1019.4 - 0.0 - - - - - - -
28/05:30pm 13.0 SW 15 18 1019.3 - 0.0 - - - - - - -
28/05:00pm 13.2 SW 20 24 1018.9 - 0.0 - - - - - - -
28/04:30pm 13.4 SW 24 28 1018.8 - 0.0 - - - - - - -
28/04:00pm 13.8 SW 27 30 1018.5 - 0.0 - - - - - - -
28/03:30pm 14.1 SW 24 29 1018.4 - 0.0 - - - - - - -
28/03:00pm 14.3 SW 18 23 1018.4 - 0.0 Fine Mostly clear 30 2 1.0 - -
28/02:30pm 15.9 WSW 14 17 1018.4 - 0.0 - - - - - - -
28/02:00pm 16.2 WSW 14 17 1018.4 - 0.0 - - - - - - -
28/01:30pm 16.2 WSW 16 22 1018.5 - 0.0 - - - - - - -
28/01:00pm 16.1 WSW 16 21 1018.8 - 0.0 - - - - - - -
28/12:30pm 15.9 W 15 22 1019.0 - 0.0 - - - - - - -
28/12:00pm 15.6 W 17 22 1019.5 - 0.0 - - - - - - -
28/11:30am 15.2 W 20 26 1019.8 - 0.0 - - - - - - -
28/11:00am 14.9 W 20 25 1020.1 - 0.0 - - - - - - -
28/10:30am 14.4 W 15 22 1020.4 - 0.0 - - - - - - -
28/10:00am 14.1 W 12 16 1020.4 - 0.0 - - - - - - -
28/09:30am 13.8 WNW 11 14 1020.3 - 0.0 - - - - - - -
28/09:00am 12.9 W 13 17 1020.3 - 0.0 Fine Mostly clear 40 1 1.0 - -
28/08:30am 12.4 W 13 17 1020.2 - 0.0 - - - - - - -
28/08:00am 11.7 W 13 16 1020.0 - 0.0 - - - - - - -
28/07:30am 11.4 W 13 17 1019.7 - 0.0 - - - - - - -
28/07:00am 11.2 W 14 17 1019.6 - 0.0 - - - - - - -
28/06:30am 11.1 W 14 19 1019.2 - 0.0 - - - - - - -
28/06:00am 11.1 W 15 18 1018.9 - 0.0 - - - - - - -
28/05:30am 11.3 W 15 20 1018.7 - 0.0 - - - - - - -
28/05:00am 10.7 W 14 18 1018.5 - 0.0 - - - - - - -
28/04:30am 11.1 W 17 22 1018.1 - 0.0 - - - - - - -
28/04:00am 11.1 W 18 22 1018.4 - 0.0 - - - - - - -
28/03:30am 10.9 W 21 25 1018.2 - 0.0 - - - - - - -
28/03:00am 10.9 W 21 28 1018.0 - 0.0 Fine Mostly clear 30 2 1.0 - -
28/02:30am 10.6 W 20 26 1017.9 - 0.0 - - - - - - -
28/02:00am 10.6 W 20 24 1017.9 - 0.0 - - - - - - -
28/01:30am 10.6 W 21 25 1017.9 - 0.0 - - - - - - -
28/01:00am 10.2 W 16 20 1017.8 - 0.0 - - - - - - -

Other Formats:

Comma delimited format used in spreadsheet applications
http://www.bom.gov.au/fwo/IDN60701/IDN60701.94933.axf

JavaScript Object Notation format (JSON) in row-major order
http://www.bom.gov.au/fwo/IDN60701/IDN60701.94933.json